Terminal Aerodrome Forecast
Issued by NWS

Home | Current Version | Previous Version | Text Only | Print | Product List | Glossary On
Versions: 1 2 3 4 5 6 7 8 9 10 11 12 13 14 15 16 17 18 19 20 21 22 23 24 25 26 27 28 29 30
000
FTUS46 KEKA 050541
TAFCEC
TAF
KCEC 050541Z 0506/0606 VRB04KT 6SM BR OVC090
      TEMPO 0506/0510 2SM BR BKN009
     FM051000 34004KT 4SM BR BKN010 OVC050
     FM051800 33010KT P6SM OVC050
     FM052100 32015G20KT P6SM SCT050 BKN100=

USA.gov is the U.S. government's official web portal to all federal, state and local government web resources and services.